createdAt,value
2022-12-18T00:09:15.486Z,79.40
2022-12-18T00:19:19.433Z,90.40
2022-12-18T00:29:23.401Z,97.60
2022-12-18T00:39:27.393Z,75.50
2022-12-18T00:49:31.689Z,96.00
2022-12-18T00:59:35.954Z,75.10
2022-12-18T01:09:39.695Z,96.20
2022-12-18T01:19:43.436Z,75.60
2022-12-18T01:29:47.780Z,58.60
2022-12-18T01:39:51.536Z,66.80
2022-12-18T01:49:59.942Z,83.10
2022-12-18T02:00:12.565Z,71.80
2022-12-18T02:10:30.698Z,66.00
2022-12-18T02:21:17.309Z,58.50
2022-12-18T02:31:29.106Z,63.80
2022-12-18T02:41:33.399Z,55.40
2022-12-18T02:52:04.916Z,51.70
2022-12-18T03:02:17.773Z,56.40
2022-12-18T03:12:49.299Z,45.50
2022-12-18T03:22:58.971Z,40.60
2022-12-18T03:33:21.073Z,56.60
2022-12-18T03:43:45.352Z,46.70
2022-12-18T03:54:01.719Z,45.40
2022-12-18T04:04:11.587Z,50.70
2022-12-18T04:14:18.277Z,45.90
2022-12-18T04:24:25.874Z,42.10
2022-12-18T04:34:39.763Z,43.30
2022-12-18T04:44:44.554Z,41.20
2022-12-18T04:54:49.030Z,52.40
2022-12-18T05:04:52.794Z,54.60
2022-12-18T05:14:56.664Z,44.90
2022-12-18T05:25:01.253Z,51.30
2022-12-18T05:35:06.436Z,58.30
2022-12-18T05:45:10.857Z,61.70
2022-12-18T05:55:14.610Z,64.70
2022-12-18T06:05:18.876Z,68.60
2022-12-18T06:15:22.865Z,55.50
2022-12-18T06:25:27.474Z,49.80
2022-12-18T06:35:31.154Z,61.90
2022-12-18T06:45:35.481Z,61.60
2022-12-18T06:55:39.233Z,52.30
2022-12-18T07:05:43.806Z,41.20
2022-12-18T07:15:47.611Z,53.80
2022-12-18T07:25:51.328Z,59.40
2022-12-18T07:35:55.239Z,57.00
2022-12-18T07:45:59.024Z,49.70
2022-12-18T07:56:27.618Z,61.20
2022-12-18T08:06:32.504Z,56.20
2022-12-18T08:16:36.668Z,54.50
2022-12-18T08:26:41.106Z,58.80
2022-12-18T08:36:44.902Z,63.70
2022-12-18T08:46:48.929Z,61.50
2022-12-18T08:56:53.637Z,55.30
2022-12-18T09:06:57.988Z,54.10
2022-12-18T09:17:02.433Z,55.10
2022-12-18T09:27:06.870Z,57.80
2022-12-18T09:37:11.403Z,61.20
2022-12-18T09:47:37.097Z,51.50
2022-12-18T09:57:47.127Z,59.20
2022-12-18T10:08:01.005Z,41.40
2022-12-18T10:18:25.767Z,32.70
2022-12-18T10:28:32.501Z,32.50
2022-12-18T10:38:36.764Z,40.70
2022-12-18T10:48:41.701Z,30.00
2022-12-18T10:58:58.028Z,33.60
2022-12-18T11:09:13.268Z,35.40
2022-12-18T11:19:42.496Z,34.60
2022-12-18T11:29:47.284Z,30.90
2022-12-18T11:39:57.291Z,30.30
2022-12-18T11:50:04.009Z,25.10
2022-12-18T12:00:18.147Z,35.50
2022-12-18T12:10:32.433Z,36.20
2022-12-18T12:20:55.546Z,38.10
2022-12-18T12:31:31.677Z,44.10
2022-12-18T12:41:57.304Z,36.60
2022-12-18T12:52:12.548Z,38.30
2022-12-18T13:02:48.022Z,40.60
2022-12-18T13:12:59.193Z,46.10
2022-12-18T13:23:20.831Z,44.70
2022-12-18T13:33:26.446Z,54.40
2022-12-18T13:43:45.026Z,43.10
2022-12-18T13:54:02.250Z,39.80
2022-12-18T14:04:18.903Z,32.50
2022-12-18T14:14:26.890Z,45.00
2022-12-18T14:24:36.167Z,48.00
2022-12-18T14:34:40.428Z,62.60
2022-12-18T14:45:12.840Z,50.00
2022-12-18T14:55:17.768Z,54.60
2022-12-18T15:05:32.944Z,52.60
2022-12-18T15:15:37.890Z,85.90
2022-12-18T15:36:11.171Z,100.50
2022-12-18T15:46:23.100Z,89.40
2022-12-18T15:56:49.501Z,65.30
2022-12-18T16:07:14.394Z,86.80
2022-12-18T16:17:21.723Z,112.00
2022-12-18T16:27:26.892Z,85.50
2022-12-18T16:37:33.235Z,126.90
2022-12-18T16:47:40.802Z,122.80
2022-12-18T16:57:47.374Z,123.70
2022-12-18T17:07:54.067Z,132.00
2022-12-18T17:18:02.534Z,113.90
2022-12-18T17:28:11.355Z,119.10
2022-12-18T17:38:17.965Z,111.60
2022-12-18T17:48:23.737Z,134.10
2022-12-18T17:58:30.679Z,123.50
2022-12-18T18:08:38.140Z,159.30
2022-12-18T18:18:44.991Z,136.10
2022-12-18T18:28:51.212Z,137.30
2022-12-18T18:38:56.685Z,155.30
2022-12-18T18:49:02.110Z,166.10
2022-12-18T18:59:07.612Z,169.50
2022-12-18T19:09:14.026Z,156.00
2022-12-18T19:19:41.755Z,200.80
2022-12-18T19:30:07.329Z,181.90
2022-12-18T19:40:13.399Z,159.10
2022-12-18T19:50:21.094Z,145.30
2022-12-18T20:00:26.478Z,151.50
2022-12-18T20:10:33.288Z,147.60
2022-12-18T20:20:39.022Z,138.50
2022-12-18T20:30:46.281Z,155.70
2022-12-18T20:40:54.641Z,163.00
2022-12-18T20:51:21.270Z,139.50
2022-12-18T21:01:29.681Z,142.30
2022-12-18T21:11:53.226Z,179.50
2022-12-18T21:32:03.118Z,173.10
2022-12-18T21:42:26.179Z,143.20
2022-12-18T21:52:31.961Z,159.40
2022-12-18T22:02:36.766Z,193.40
2022-12-18T22:12:44.396Z,209.90
2022-12-18T22:22:52.300Z,161.50
2022-12-18T22:32:56.306Z,157.90
2022-12-18T22:43:00.103Z,142.90
2022-12-18T22:53:04.271Z,88.30
2022-12-18T23:03:10.304Z,133.30
2022-12-18T23:13:14.765Z,133.70
2022-12-18T23:23:18.922Z,124.30
2022-12-18T23:33:23.407Z,137.50
2022-12-18T23:43:28.204Z,120.30
2022-12-18T23:53:32.372Z,125.50
